Latest Weather Observations for Kilmore Gap

IDV60801

Issued at 3:02 pm EST Tuesday 27 September 2016 (issued every 30 minutes, with the page automatically refreshed every 10 minutes)

About weather observations | Map of weather stations | Latest weather observations for VIC | Other Formats
Station Details ID: 088162 Name: KILMORE GAP Lat: -37.38 Lon: 144.97 Height: 527.8 m
Data from the previous 72 hours. | See also: Recent months at Kilmore Gap
Date/Time
EST
Temp
°C
App
Temp
°C
Dew
Point
°C
Rel
Hum
%
Delta-T
°C
Wind Press
QNH
hPa
Press
MSL
hPa
Rain since
9am
mm
Dir  Spd
km/h
Gust
km/h
Spd
kts
Gust
kts
27/03:00pm 10.1 8.2 9.0 93 0.6 SSW 9 13 5 7 1011.8 1012.2 1.8
27/02:04pm 10.8 8.5 10.5 98 0.2 NW 13 19 7 10 1011.7 - 1.0
27/02:00pm 9.4 7.0 8.6 95 0.4 NNW 11 19 6 10 1011.8 - 1.0
27/01:58pm 9.1 6.9 7.9 92 0.6 NNW 9 19 5 10 1011.8 - 1.0
27/01:51pm 9.3 7.6 7.7 90 0.8 W 6 13 3 7 1011.8 - 1.0
27/01:30pm 9.1 6.7 8.8 98 0.2 W 11 17 6 9 1011.9 - 0.2
27/01:00pm 9.1 5.9 8.5 96 0.3 WNW 15 22 8 12 1011.8 - 0.0
27/12:53pm 8.8 5.1 7.9 94 0.4 WNW 17 24 9 13 1011.9 - 0.0
27/12:30pm 10.3 6.8 7.2 81 1.5 SW 15 20 8 11 1011.8 - 0.0
27/12:00pm 10.0 5.9 6.3 78 1.8 SW 17 24 9 13 1011.9 1012.3 0.0
27/11:30am 9.8 6.5 6.2 78 1.7 WSW 13 22 7 12 1011.8 - 0.0
27/10:00am 9.7 7.1 6.2 79 1.7 W 9 15 5 8 1011.8 - 0.0
27/09:30am 9.3 6.7 6.0 80 1.6 W 9 13 5 7 1011.9 - 0.0
27/09:00am 8.5 6.3 5.4 81 1.4 WNW 6 11 3 6 1011.4 1011.8 10.6
27/08:30am 7.5 4.3 5.0 84 1.1 WNW 11 17 6 9 1011.2 - 10.6
27/08:00am 6.6 3.5 3.8 82 1.2 W 9 13 5 7 1010.8 - 10.6
27/07:30am 5.7 2.1 3.0 83 1.2 W 11 17 6 9 1010.7 - 10.6
27/07:00am 4.9 0.8 2.4 84 1.0 W 13 17 7 9 1010.3 - 10.6
27/06:30am 4.1 0.0 2.0 86 0.9 W 13 17 7 9 1009.9 - 10.6
27/06:00am 3.7 -0.8 2.2 90 0.6 W 15 20 8 11 1009.6 1010.0 10.6
27/05:30am 3.9 -0.9 2.4 90 0.6 W 17 22 9 12 1009.5 - 10.6
27/05:00am 4.0 -0.8 2.5 90 0.6 WSW 17 22 9 12 1009.2 - 10.6
27/04:30am 3.6 0.0 3.2 97 0.2 W 11 15 6 8 1008.9 - 10.6
27/04:00am 3.5 -0.5 3.1 97 0.2 WNW 13 15 7 8 1008.8 - 10.6
27/03:30am 3.4 0.2 3.1 98 0.1 WNW 9 13 5 7 1008.8 - 10.6
27/03:00am 3.8 0.3 3.4 97 0.2 WNW 11 15 6 8 1008.8 1009.1 10.6
27/02:30am 4.2 0.7 3.5 95 0.3 WNW 11 13 6 7 1009.0 - 10.6
27/02:00am 4.8 1.0 3.8 93 0.4 W 13 17 7 9 1008.9 - 10.6
27/01:30am 4.7 1.3 3.8 94 0.4 WNW 11 15 6 8 1009.1 - 10.6
27/01:00am 4.9 1.4 3.7 92 0.5 WNW 11 15 6 8 1009.1 - 10.6
27/12:30am 5.2 1.4 3.9 91 0.6 WNW 13 17 7 9 1009.3 - 10.6
27/12:00am 5.2 1.0 3.7 90 0.7 WNW 15 19 8 10 1009.4 1009.8 10.6
 
Date/Time
EST
Temp
°C
App
Temp
°C
Dew
Point
°C
Rel
Hum
%
Delta-T
°C
Wind Press
QNH
hPa
Press
MSL
hPa
Rain since
9am
mm
Dir  Spd
km/h
Gust
km/h
Spd
kts
Gust
kts
26/11:30pm 4.9 -0.3 3.6 91 0.6 NW 20 28 11 15 1009.4 - 10.6
26/11:00pm 5.1 0.5 3.8 91 0.6 NW 17 22 9 12 1009.3 - 10.4
26/10:30pm 4.7 0.6 4.1 96 0.3 W 15 20 8 11 1009.7 - 10.4
26/10:00pm 5.6 -0.4 5.3 98 0.1 W 26 39 14 21 1009.8 - 10.4
26/09:30pm 6.9 2.4 6.8 99 0.0 N 20 28 11 15 1009.8 - 4.4
26/09:26pm 6.9 2.4 6.8 99 0.0 N 20 26 11 14 1009.8 - 4.2
26/09:22pm 6.8 1.8 6.5 98 0.1 N 22 28 12 15 1009.8 - 4.2
26/09:00pm 6.8 0.7 6.5 98 0.1 N 28 35 15 19 1009.6 1010.0 4.0
26/08:30pm 6.9 2.5 6.6 98 0.1 NNE 19 24 10 13 1009.4 - 2.0
26/08:00pm 6.7 2.6 6.4 98 0.1 NNE 17 26 9 14 1009.2 - 2.0
26/07:34pm 7.1 1.7 6.2 94 0.4 N 24 37 13 20 1009.2 - 2.0
26/07:30pm 7.2 1.4 6.3 94 0.4 N 26 37 14 20 1009.4 - 2.0
26/07:00pm 8.9 4.0 6.7 86 1.1 NNW 22 30 12 16 1009.8 - 0.4
26/06:30pm 9.3 5.2 6.2 81 1.5 N 17 20 9 11 1009.3 - 0.0
26/06:00pm 9.5 4.0 5.7 77 1.8 N 24 30 13 16 1009.1 1009.5 0.0
26/05:30pm 10.4 5.1 5.2 70 2.4 N 22 30 12 16 1009.2 - 0.0
26/05:00pm 10.7 4.3 5.0 68 2.7 N 28 35 15 19 1009.1 - 0.0
26/04:30pm 11.4 5.9 5.7 68 2.7 N 24 30 13 16 1009.0 - 0.0
26/04:00pm 10.5 3.8 5.5 71 2.4 N 30 37 16 20 1009.5 - 0.0
26/03:30pm 11.2 4.9 5.7 69 2.6 NNW 28 39 15 21 1009.5 - 0.0
26/03:00pm 12.3 5.4 6.6 68 2.8 NNW 32 39 17 21 1009.7 1010.1 0.0
26/02:30pm 11.9 5.9 5.5 65 3.1 NNW 26 33 14 18 1010.1 - 0.0
26/02:00pm 11.1 5.3 6.3 72 2.3 NNW 26 35 14 19 1010.3 - 0.0
26/01:30pm 10.6 4.5 4.9 68 2.7 NNW 26 35 14 19 1010.4 - 0.0
26/01:00pm 10.9 5.4 5.7 70 2.5 NNW 24 35 13 19 1010.8 - 0.0
26/12:30pm 10.3 5.4 4.9 69 2.5 NW 20 24 11 13 1011.3 - 0.0
26/12:00pm 10.7 5.9 5.5 70 2.5 NNW 20 30 11 16 1011.6 1012.0 0.0
26/11:30am 10.5 6.3 5.5 71 2.4 NNW 17 24 9 13 1011.9 - 0.0
26/11:00am 10.1 5.5 5.7 74 2.1 N 19 26 10 14 1012.2 - 0.0
26/10:30am 9.5 5.2 7.1 85 1.2 N 19 26 10 14 1012.4 - 0.0
26/10:00am 10.2 5.9 6.9 80 1.6 N 19 24 10 13 1012.7 - 0.0
26/09:30am 9.3 5.6 6.2 81 1.5 N 15 20 8 11 1012.9 - 0.0
26/09:00am 8.8 5.1 6.2 84 1.2 N 15 19 8 10 1012.9 1013.3 0.2
26/08:30am 8.3 4.4 6.9 91 0.7 NNE 17 20 9 11 1012.7 - 0.2
26/08:00am 7.2 2.6 5.8 91 0.6 N 19 20 10 11 1012.8 - 0.2
26/07:30am 6.7 1.9 5.7 93 0.5 N 20 24 11 13 1013.1 - 0.2
26/07:00am 5.7 0.9 4.8 94 0.4 N 19 24 10 13 1013.0 - 0.2
26/06:30am 5.7 0.9 4.7 93 0.4 N 19 20 10 11 1013.0 - 0.2
26/06:00am 5.7 0.9 4.5 92 0.5 N 19 20 10 11 1012.6 1013.0 0.2
26/05:30am 5.2 0.8 4.6 96 0.3 N 17 20 9 11 1012.6 - 0.2
26/05:00am 5.4 1.0 4.7 95 0.3 N 17 20 9 11 1012.4 - 0.2
26/04:30am 5.5 1.1 4.6 94 0.4 N 17 20 9 11 1012.3 - 0.2
26/04:00am 6.0 1.0 4.5 90 0.7 N 20 24 11 13 1012.3 - 0.2
26/03:30am 5.8 1.0 4.6 92 0.5 N 19 20 10 11 1012.3 - 0.2
26/03:00am 5.9 1.8 4.2 89 0.8 N 15 17 8 9 1012.2 1012.7 0.2
26/02:30am 6.0 2.7 4.3 89 0.8 N 11 13 6 7 1012.6 - 0.2
26/02:00am 6.2 3.6 4.2 87 0.9 N 7 9 4 5 1012.9 - 0.2
26/01:30am 6.2 3.2 4.0 86 1.0 ENE 9 11 5 6 1012.9 - 0.2
26/01:00am 6.0 3.0 4.2 88 0.8 ESE 9 11 5 6 1013.3 - 0.2
26/12:30am 5.4 1.9 3.7 89 0.7 SE 11 13 6 7 1013.3 - 0.2
26/12:00am 5.2 1.4 3.9 91 0.6 SE 13 13 7 7 1013.5 1013.9 0.2
 
Date/Time
EST
Temp
°C
App
Temp
°C
Dew
Point
°C
Rel
Hum
%
Delta-T
°C
Wind Press
QNH
hPa
Press
MSL
hPa
Rain since
9am
mm
Dir  Spd
km/h
Gust
km/h
Spd
kts
Gust
kts
25/11:30pm 5.4 2.5 4.4 93 0.4 SSE 9 13 5 7 1013.6 - 0.2
25/11:00pm 5.4 2.4 4.2 92 0.5 S 9 11 5 6 1013.8 - 0.2
25/10:30pm 5.7 2.8 4.8 94 0.4 S 9 13 5 7 1014.0 - 0.2
25/10:00pm 5.5 2.6 4.8 95 0.3 S 9 13 5 7 1014.2 - 0.2
25/09:30pm 5.7 2.1 4.8 94 0.4 S 13 15 7 8 1014.0 - 0.2
25/09:00pm 6.1 2.8 4.3 88 0.8 S 11 17 6 9 1014.0 1014.5 0.2
25/08:30pm 5.9 2.1 4.1 88 0.8 S 13 17 7 9 1013.7 - 0.2
25/08:00pm 5.8 2.5 4.3 90 0.7 S 11 15 6 8 1013.6 - 0.2
25/07:30pm 6.5 3.6 4.8 89 0.8 S 9 11 5 6 1013.2 - 0.2
25/07:00pm 6.6 3.7 4.6 87 0.9 SSE 9 15 5 8 1012.7 - 0.2
25/06:30pm 6.8 3.2 5.0 88 0.8 SSE 13 15 7 8 1012.1 - 0.2
25/06:00pm 7.3 4.9 5.3 87 0.9 SSE 7 11 4 6 1011.9 1012.3 0.2
25/05:30pm 8.1 5.1 5.9 86 1.0 SSE 11 17 6 9 1011.6 - 0.2
25/05:00pm 8.9 5.5 5.8 81 1.5 S 13 17 7 9 1011.5 - 0.2
25/04:30pm 9.1 4.0 6.0 81 1.5 S 22 32 12 17 1011.3 - 0.2
25/04:00pm 10.0 4.7 3.1 62 3.1 SSW 20 30 11 16 1011.2 - 0.2
25/03:30pm 10.3 5.9 4.9 69 2.5 SW 17 24 9 13 1011.4 - 0.2
25/03:00pm 9.4 4.2 3.8 68 2.5 SSW 20 28 11 15 1011.4 1011.8 0.2
25/02:30pm 9.7 4.6 3.9 67 2.6 SW 20 28 11 15 1011.3 - 0.2
25/02:00pm 9.8 4.0 4.2 68 2.6 SW 24 35 13 19 1011.4 - 0.2
25/01:30pm 11.0 6.1 4.2 63 3.1 SSW 19 28 10 15 1011.2 - 0.2
25/01:00pm 10.0 4.0 3.3 63 3.0 SW 24 33 13 18 1011.4 - 0.0
25/12:30pm 9.5 4.4 3.0 64 2.9 SSW 19 30 10 16 1011.5 - 0.0
25/12:00pm 10.5 5.3 5.3 70 2.5 SSW 22 32 12 17 1011.3 1011.7 0.0
25/11:30am 8.6 3.4 3.8 72 2.1 SSW 20 35 11 19 1011.4 - 0.0
25/11:00am 8.7 3.4 4.9 77 1.7 SSW 22 32 12 17 1011.4 - 0.0
25/10:30am 8.7 3.7 4.7 76 1.8 SSW 20 33 11 18 1011.3 - 0.0
25/10:00am 8.5 2.3 4.5 76 1.8 SSW 26 39 14 21 1011.2 - 0.0
25/09:30am 8.3 2.6 5.1 80 1.5 SW 24 33 13 18 1010.9 - 0.0
25/09:00am 7.4 1.2 4.2 80 1.4 SW 26 37 14 20 1010.6 1010.9 8.6
25/08:30am 6.7 0.8 3.9 82 1.2 SW 24 37 13 20 1010.1 - 8.6
25/08:00am 6.1 0.7 4.4 89 0.8 SW 22 32 12 17 1010.0 - 8.6
25/07:30am 5.6 0.6 4.7 94 0.4 SW 20 30 11 16 1009.8 - 8.6
25/07:00am 5.5 0.2 4.9 96 0.3 SW 22 30 12 16 1009.3 - 8.6
25/06:30am 5.4 0.1 5.1 98 0.1 SW 22 30 12 16 1009.0 - 8.6
25/06:00am 5.6 0.4 5.3 98 0.1 SSW 22 32 12 17 1008.6 1008.9 8.6
25/05:30am 6.1 0.2 5.8 98 0.1 SW 26 37 14 20 1008.3 - 8.6
25/05:00am 6.7 1.7 6.6 99 0.0 SW 22 32 12 17 1007.9 - 8.6
25/04:30am 6.8 1.5 6.7 99 0.0 SW 24 33 13 18 1007.6 - 8.6
25/04:00am 7.2 2.0 7.1 99 0.0 SW 24 33 13 18 1007.4 - 8.6
25/03:58am 7.4 2.6 7.3 99 0.0 SW 22 33 12 18 1007.4 - 8.6
25/03:30am 7.5 2.7 7.4 99 0.0 SW 22 32 12 17 1007.2 - 8.6
25/03:28am 7.5 3.1 7.4 99 0.0 SW 20 28 11 15 1007.1 - 8.6
25/03:00am 7.5 3.3 7.4 99 0.0 SW 19 26 10 14 1007.0 1007.3 8.6
25/02:30am 7.6 2.1 7.5 99 0.0 SSW 26 35 14 19 1007.0 - 8.4
25/02:00am 8.4 4.8 8.3 99 0.0 NW 17 22 9 12 1007.2 - 6.2
25/01:30am 8.9 5.8 8.8 99 0.1 N 15 17 8 9 1006.9 - 4.8
25/01:22am 8.9 5.8 8.8 99 0.1 N 15 22 8 12 1006.9 - 4.2
25/01:21am 8.9 5.4 8.8 99 0.1 N 17 22 9 12 1006.9 - 4.2
25/01:00am 8.9 5.0 8.8 99 0.1 N 19 22 10 12 1006.9 - 3.6
25/12:30am 9.0 4.5 8.7 98 0.2 N 22 28 12 15 1006.9 - 2.6
25/12:00am 9.2 4.4 8.9 98 0.2 N 24 28 13 15 1006.9 1007.2 1.0
 
Date/Time
EST
Temp
°C
App
Temp
°C
Dew
Point
°C
Rel
Hum
%
Delta-T
°C
Wind Press
QNH
hPa
Press
MSL
hPa
Rain since
9am
mm
Dir  Spd
km/h
Gust
km/h
Spd
kts
Gust
kts
24/11:30pm 9.4 4.7 9.1 98 0.2 N 24 30 13 16 1006.9 - 0.8
24/11:00pm 9.4 5.4 9.1 98 0.2 N 20 26 11 14 1007.0 - 0.8
24/10:30pm 9.4 5.6 8.9 97 0.3 N 19 20 10 11 1007.1 - 0.8
24/10:00pm 9.4 5.6 8.9 97 0.3 N 19 20 10 11 1007.1 - 0.8
24/09:30pm 9.4 5.6 8.9 97 0.3 N 19 22 10 12 1007.1 - 0.8
24/09:00pm 9.4 5.4 8.9 97 0.3 N 20 24 11 13 1007.0 1007.3 0.8
24/08:30pm 9.5 4.7 8.7 95 0.4 N 24 28 13 15 1007.3 - 0.8
24/08:00pm 9.6 4.0 8.7 94 0.5 N 28 33 15 18 1007.3 - 0.8
24/07:30pm 9.8 4.6 8.9 94 0.5 NNW 26 35 14 19 1007.2 - 0.8
24/07:00pm 10.0 4.1 8.9 93 0.6 NNW 30 37 16 20 1007.1 - 0.8
24/06:30pm 9.9 4.0 9.1 95 0.4 N 30 35 16 19 1007.2 - 0.6
24/06:00pm 10.6 4.6 8.5 87 1.1 N 30 37 16 20 1007.0 1007.3 0.6
24/05:30pm 11.8 4.6 7.5 75 2.1 N 35 43 19 23 1006.8 - 0.0
24/05:00pm 11.9 5.3 7.6 75 2.1 N 32 43 17 23 1006.7 - 0.0
24/04:30pm 12.3 5.0 7.2 71 2.5 N 35 44 19 24 1006.5 - 0.0
24/04:00pm 12.5 5.7 7.6 72 2.5 N 33 43 18 23 1006.6 - 0.0
24/03:30pm 12.9 7.1 7.8 71 2.6 N 28 35 15 19 1006.8 - 0.0

Other Formats:

Comma delimited format used in spreadsheet applications
http://www.bom.gov.au/fwo/IDV60801/IDV60801.94860.axf

JavaScript Object Notation format (JSON) in row-major order
http://www.bom.gov.au/fwo/IDV60801/IDV60801.94860.json